Fosston, MN

3:17 PM CDT on March 29, 2017 (GMT -0500)
Fosston Municipal | | Change Station
Active Advisory: Flood Warning

Elev 1276 ft 47.59 °N, 95.77 °W | Updated 23 minutes ago

Clear
Clear
61 °F
Feels Like 61 °F
N
12
Wind Variable Wind from South

Today
High -- | Low -- °F
--% Chance of Precip.
Yesterday
High -- | Low -- °F
Precip. -- in
Pressure 30.12 in
Visibility 10.0 miles
Clouds Clear
Dew Point 32 °F
Humidity 34%
Rainfall 0.00 in
Snow Depth Not available.
7:07 AM 7:49 PM
Waxing Crescent, 4% visible
METAR KFSE 291954Z AUTO 18010KT 10SM CLR 16/00 A3012 RMK AO2
Pressure 30.12 in
Visibility 10.0 miles
Clouds Clear
Dew Point 32 °F
Humidity 34%
Rainfall 0.00 in
Snow Depth Not available.
7:07 AM 7:49 PM
Waxing Crescent, 4% visible
METAR KFSE 291954Z AUTO 18010KT 10SM CLR 16/00 A3012 RMK AO2

Get Your Daily Forecast Email!

Thanks for signing up!

Be on the lookout for a verification email in your inbox.

You'll start receiving severe weather alerts in your inbox..

×

10-Day Weather Forecast

Almanac

Astronomy

Mar. 29, 2017 Rise Set
Actual Time
Civil Twilight
Nautical Twilight
Astronomical Twilight
Moon
Length of Visible Light
Length of Day
Tomorrow will be .
, % of the Moon is Illuminated

Today's Extremes

State Highs State Lows

Community

WunderPhotos

Upload Photos

1,962,540 photos uploaded!

WunderBlog® & News

Nearby

Air Quality

  Air Quality AQ Index Pollutant
Not available.

Snow Depth

Station Depth Elevation

Earthquake Activity

City Distance Mag. Time & Date
Minimum magnitude displayed is 2.5.

Earthquake Activity

City Distance Mag. Time & Date
Minimum magnitude displayed is 2.5.

Coastal Water Temperatures

Place Temperature

Stations

Nearby Weather Stations

Station Location Temp. Windchill Dew Point Humidity Wind Precip. Elev Updated Type
                   

Watches & Warnings

Flood Warning
Issued: 12:26 PM CDT Mar. 29, 2017 – National Weather Service

The Flood Warning continues for...
* ... Oslo... on the Red River.
* From Thursday morning to Thursday April 6... or until the warning
is cancelled.
* At 11:15 am Wednesday the stage was 24.5 feet.
* Minor flood stage is 26.0 feet.
* Forecast... rise above flood stage by late Thursday morning and
continue to rise to near 27.5 feet by Saturday early afternoon. The
river will fall below flood stage by early Wednesday morning.
* The river is forecast to crest at 27.5 on Saturday early afternoon
during this 7-day period.
* Impact statement(s) - at 26.0 feet, Flood Warning stage... minor.
County Road 2 south of Oslo is closed in sections 2 and 11 of
Pulaski township.


Daily 7am CDT/6am CST forecast stage in feet:

date Thu Fri Sat sun Mon Tue Wed
(month/day) 03/30 03/31 04/01 04/02 04/03 04/04 04/05

Red River
Oslo 25.7 26.8 27.4 27.4 27.0 26.4 25.9


Lat... Lon 4810 9721 4807 9698 4846 9706 4848 9725